This is the latest recevied weather packets stored in our database for station/object KL1SF-7. If no packets are shown the sender has not sent any weather packets the latest 1 day(s).
| Time | Temp. | Humidity | Pressure | Rain* | Wind** | Luminosity | Snow |
|---|---|---|---|---|---|---|---|
| 1836274579 | 14.44° C | 64% | 1022.6 hPa | 1.27 mm | 0 m/s | - | - |
| 1836274446 | 13.89° C | 76% | 1023.3 hPa | 5.59 mm | 0 m/s | - | - |
| 1836273991 | 14.44° C | 65% | 1022.6 hPa | 1.27 mm | 0 m/s | - | - |
| 1778042603 | 2.78° C | 76% | 1014.1 hPa | 0 mm | 0 m/s | - | - |
| 1778042016 | 3.33° C | 75% | 1014.3 hPa | 0 mm | 0 m/s | - | - |
| 1778041401 | 3.33° C | 74% | 1014.2 hPa | 0 mm | 0 m/s | - | - |
| 1778040810 | 3.33° C | 73% | 1014.2 hPa | 0 mm | 0 m/s | - | - |
| 1778040223 | 3.89° C | 72% | 1013.9 hPa | 0 mm | 0 m/s | - | - |
| 1778039604 | 3.89° C | 71% | 1013.6 hPa | 0 mm | 0 m/s | - | - |
| 1778039014 | 4.44° C | 70% | 1013.6 hPa | 0 mm | 0 m/s | - | - |
| 1778038426 | 4.44° C | 68% | 1013.5 hPa | 0 mm | 0 m/s | - | - |
| 1778037808 | 4.44° C | 67% | 1013.6 hPa | 0 mm | 0.45 m/s, 215° | - | - |
| 1778037205 | 5° C | 65% | 1013.6 hPa | 0 mm | 0 m/s | - | - |
| 1778036617 | 5° C | 64% | 1012.8 hPa | 0 mm | 0 m/s | - | - |
| 1778036019 | 5° C | 63% | 1012.7 hPa | 0 mm | 0.89 m/s, 216° | - | - |
| 1778035409 | 5.56° C | 61% | 1012.7 hPa | 0 mm | 0.89 m/s, 178° | - | - |
| 1778034820 | 5.56° C | 60% | 1012.4 hPa | 0 mm | 0.45 m/s, 195° | - | - |
| 1778034220 | 5.56° C | 60% | 1012.2 hPa | 0 mm | 0.45 m/s, 213° | - | - |
| 1778033614 | 5.56° C | 60% | 1012.2 hPa | 0 mm | 0.45 m/s, 219° | - | - |
| 1778033027 | 6.11° C | 60% | 1012.1 hPa | 0 mm | 0 m/s | - | - |
| 1778032408 | 6.11° C | 60% | 1011.8 hPa | 0 mm | 0.45 m/s, 224° | - | - |
| 1778031817 | 6.67° C | 58% | 1011.8 hPa | 0 mm | 0.89 m/s, 227° | - | - |
| 1778031210 | 6.67° C | 57% | 1011.8 hPa | 0 mm | 0.89 m/s, 244° | - | - |
| 1778030610 | 7.22° C | 56% | 1011.8 hPa | 0 mm | 0.45 m/s, 253° | - | - |
| 1778030003 | 7.22° C | 55% | 1011.8 hPa | 0 mm | 0.45 m/s, 208° | - | - |
* Rain since midnight (hover to see other rain measurements)
** Current wind speed in m/s (hover to see current wind gust speed)